Helen D. Coppedge — WCA5274 — position and weather

sailwx.info

Track history (hours):
 
Tides and Currents Weather Stations Pressure Air Temp Water Temp Dewpoint Dewpoint Depression Visibility Wind Speed Wind Dir Waves Ship Positions

Helen D. Coppedge

Owner: MORAN TOWING CORPORATION, Philadelphia, PA. More information available from US FCC via Universal Licensing System and Coast Guard Vessel Documentation Center.

Last reported at 2017-Apr-23 08:49 UTC. Time now 2017-Apr-26 11:56 UTC.
Position N 40°53' W 073°56'.

Length 30 m; draft 4 m.

Type: Tug. MMSI: 367177370.

Date/timePositionNaut miles runAvg speedWind from/ knotsBaromVisibWave heightAir tempDewpointWater temp
2017-Apr-23 08:49N 40°53' W 073°56'1 4.5
2017-Apr-23 08:30N 40°52' W 073°57'2 4.6
2017-Apr-23 08:00N 40°50' W 073°58'2 3.7
2017-Apr-23 07:30N 40°48' W 073°59'2 3.1
2017-Apr-23 07:00N 40°47' W 073°60'1 2.3
2017-Apr-23 06:30N 40°46' W 074°01'1 2.0
2017-Apr-23 06:00N 40°45' W 074°01'1 1.8
2017-Apr-23 05:30N 40°44' W 074°01'1 1.9
2017-Apr-23 05:00N 40°43' W 074°02'1 2.1
2017-Apr-23 04:30N 40°42' W 074°02'1 2.1
2017-Apr-23 04:00N 40°41' W 074°02'1 2.5
2017-Apr-23 03:30N 40°40' W 074°02'0 0.5
2017-Apr-23 03:00N 40°39' W 074°02'0 0.0
2017-Apr-23 02:30N 40°39' W 074°02'0 0.4
2017-Apr-23 02:00N 40°39' W 074°02'2 4.4
2017-Apr-23 01:30N 40°37' W 074°03'3 5.1
2017-Apr-23 00:58N 40°35' W 074°01'11 2.7
2017-Apr-22 20:43N 40°37' W 073°46'2 6.8
2017-Apr-22 20:25N 40°36' W 073°49'3 6.7
2017-Apr-22 19:59N 40°35' W 073°52'2 5.1
2017-Apr-22 19:30N 40°34' W 073°55'3 5.4
2017-Apr-22 18:59N 40°34' W 073°59'2 4.5
2017-Apr-22 18:30N 40°35' W 074°02'3 6.3
2017-Apr-22 18:00N 40°38' W 074°03'2 3.1
2017-Apr-22 17:30N 40°39' W 074°02'0 0.1
2017-Apr-22 17:00N 40°39' W 074°02'0 0.6
2017-Apr-22 16:30N 40°39' W 074°02'4 7.3
2017-Apr-22 16:00N 40°43' W 074°02'5 9.2
2017-Apr-22 15:30N 40°47' W 073°60'510.2
2017-Apr-22 15:00N 40°52' W 073°57'  
Track history (hours):
 
Tides and Currents Weather Stations Pressure Air Temp Water Temp Dewpoint Dewpoint Depression Visibility Wind Speed Wind Dir Waves Ship Positions

Helen D. Coppedge

Owner: MORAN TOWING CORPORATION, Philadelphia, PA. More information available from US FCC via Universal Licensing System and Coast Guard Vessel Documentation Center.

Last reported at 2017-Apr-23 08:49 UTC. Time now 2017-Apr-26 11:56 UTC.
Position N 40°53' W 073°56'.

Length 30 m; draft 4 m.

Type: Tug. MMSI: 367177370.

Date/timePositionNaut miles runAvg speedWind from/ knotsBaromVisibWave heightAir tempDewpointWater temp
2017-Apr-23 08:49N 40°53' W 073°56'1 4.5
2017-Apr-23 08:30N 40°52' W 073°57'2 4.6
2017-Apr-23 08:00N 40°50' W 073°58'2 3.7
2017-Apr-23 07:30N 40°48' W 073°59'2 3.1
2017-Apr-23 07:00N 40°47' W 073°60'1 2.3
2017-Apr-23 06:30N 40°46' W 074°01'1 2.0
2017-Apr-23 06:00N 40°45' W 074°01'1 1.8
2017-Apr-23 05:30N 40°44' W 074°01'1 1.9
2017-Apr-23 05:00N 40°43' W 074°02'1 2.1
2017-Apr-23 04:30N 40°42' W 074°02'1 2.1
2017-Apr-23 04:00N 40°41' W 074°02'1 2.5
2017-Apr-23 03:30N 40°40' W 074°02'0 0.5
2017-Apr-23 03:00N 40°39' W 074°02'0 0.0
2017-Apr-23 02:30N 40°39' W 074°02'0 0.4
2017-Apr-23 02:00N 40°39' W 074°02'2 4.4
2017-Apr-23 01:30N 40°37' W 074°03'3 5.1
2017-Apr-23 00:58N 40°35' W 074°01'11 2.7
2017-Apr-22 20:43N 40°37' W 073°46'2 6.8
2017-Apr-22 20:25N 40°36' W 073°49'3 6.7
2017-Apr-22 19:59N 40°35' W 073°52'2 5.1
2017-Apr-22 19:30N 40°34' W 073°55'3 5.4
2017-Apr-22 18:59N 40°34' W 073°59'2 4.5
2017-Apr-22 18:30N 40°35' W 074°02'3 6.3
2017-Apr-22 18:00N 40°38' W 074°03'2 3.1
2017-Apr-22 17:30N 40°39' W 074°02'0 0.1
2017-Apr-22 17:00N 40°39' W 074°02'0 0.6
2017-Apr-22 16:30N 40°39' W 074°02'4 7.3
2017-Apr-22 16:00N 40°43' W 074°02'5 9.2
2017-Apr-22 15:30N 40°47' W 073°60'510.2
2017-Apr-22 15:00N 40°52' W 073°57'  

Dump ship's entire track history